Time;durP1;ratioP1;P1;durP2;ratioP2;P2;SDS_P1;SDS_P2;PMS_P1;PMS_P2;Temp;Humidity;BMP_temperature;BMP_pressure;BME280_temperature;BME280_humidity;BME280_pressure;Samples;Min_cycle;Max_cycle;Signal;HPM_P1;HPM_P2
2021/08/16 00:01:29;;;;;;;28.80;11.52;;;;;;;13.80;81.34;101509.94;5063277;28;20028;-84
2021/08/16 00:03:54;;;;;;;22.85;11.10;;;;;;;13.74;81.34;101497.97;5079952;28;20035;-84
2021/08/16 00:06:20;;;;;;;27.65;11.10;;;;;;;13.81;81.76;101500.78;5048777;28;21009;-85
2021/08/16 00:08:46;;;;;;;31.25;12.45;;;;;;;13.79;81.45;101483.94;5049383;28;20027;-84
2021/08/16 00:11:12;;;;;;;23.38;10.75;;;;;;;13.81;81.59;101492.69;5046646;28;20036;-84
2021/08/16 00:13:37;;;;;;;27.63;10.88;;;;;;;13.75;82.46;101485.31;5048765;28;20029;-84
2021/08/16 00:16:05;;;;;;;23.27;10.32;;;;;;;13.85;81.99;101502.13;5063272;28;20170;-85
2021/08/16 00:18:31;;;;;;;26.77;10.18;;;;;;;13.78;82.41;101496.59;5060922;28;20031;-86
2021/08/16 00:20:57;;;;;;;25.92;10.95;;;;;;;13.81;82.73;101500.78;5074346;28;20397;-85
2021/08/16 00:23:23;;;;;;;27.38;11.32;;;;;;;13.79;82.28;101497.44;5048230;28;20028;-84
2021/08/16 00:25:49;;;;;;;23.45;10.52;;;;;;;13.68;82.82;101484.31;5079667;28;20024;-87
2021/08/16 00:28:14;;;;;;;29.05;11.23;;;;;;;13.77;82.44;101504.88;5047387;28;20024;-85
2021/08/16 00:30:40;;;;;;;27.25;10.55;;;;;;;13.71;82.79;101487.53;5058269;28;20414;-84
2021/08/16 00:33:06;;;;;;;19.65;10.60;;;;;;;13.64;82.45;101476.56;5049775;28;20043;-84
2021/08/16 00:35:31;;;;;;;22.95;10.10;;;;;;;13.67;83.04;101475.38;5036429;28;20540;-85
2021/08/16 00:37:57;;;;;;;25.23;10.77;;;;;;;13.82;82.56;101486.28;5072974;28;20028;-84
2021/08/16 00:40:22;;;;;;;26.85;10.85;;;;;;;13.69;82.01;101470.66;5049665;28;20024;-85
2021/08/16 00:42:48;;;;;;;20.63;9.85;;;;;;;13.86;82.72;101493.00;5068251;28;20046;-84
2021/08/16 00:45:14;;;;;;;26.20;11.00;;;;;;;13.83;82.42;101488.78;5064384;28;20024;-84
2021/08/16 00:47:40;;;;;;;21.70;10.07;;;;;;;13.82;82.08;101487.09;5064009;28;20028;-85
2021/08/16 00:50:07;;;;;;;23.90;8.73;;;;;;;13.84;81.78;101489.66;5064254;28;20114;-85
2021/08/16 00:52:33;;;;;;;20.15;8.90;;;;;;;13.64;81.83;101467.63;5066115;28;20036;-85
2021/08/16 00:54:59;;;;;;;24.27;9.27;;;;;;;13.80;81.74;101488.31;5078746;28;20802;-84
2021/08/16 00:57:29;;;;;;;24.25;9.05;;;;;;;13.83;81.47;101496.06;5076355;28;20048;-84
2021/08/16 00:59:56;;;;;;;24.92;9.50;;;;;;;13.80;81.98;101497.25;5070588;28;20490;-84
2021/08/16 01:02:21;;;;;;;24.20;10.10;;;;;;;13.77;81.82;101483.28;5044569;28;20059;-84
2021/08/16 01:04:47;;;;;;;21.35;9.30;;;;;;;13.59;81.50;101461.91;5075652;28;20048;-84
2021/08/16 01:07:13;;;;;;;22.95;9.45;;;;;;;13.76;81.53;101493.25;5076612;28;20085;-85
2021/08/16 01:09:38;;;;;;;21.45;9.07;;;;;;;13.76;81.65;101484.25;5057212;28;20021;-85
2021/08/16 01:12:05;;;;;;;16.67;8.23;;;;;;;13.73;81.52;101490.03;5055013;28;20020;-86
2021/08/16 01:14:31;;;;;;;19.58;8.80;;;;;;;13.70;81.69;101488.53;5073490;28;20390;-85
2021/08/16 01:16:58;;;;;;;22.30;9.27;;;;;;;13.77;81.10;101497.63;5051183;28;20035;-87
2021/08/16 01:19:24;;;;;;;21.20;8.93;;;;;;;13.64;81.34;101473.88;5047470;28;20031;-84
2021/08/16 01:21:50;;;;;;;23.63;8.40;;;;;;;13.81;81.13;101503.50;5049001;28;20032;-83
2021/08/16 01:24:17;;;;;;;21.10;8.73;;;;;;;13.80;81.24;101510.78;5079266;28;20106;-84
2021/08/16 01:26:42;;;;;;;20.23;9.48;;;;;;;13.81;80.94;101512.47;5050411;28;21355;-84
2021/08/16 01:29:20;;;;;;;16.85;7.50;;;;;;;13.77;80.65;101502.19;5066128;28;20577;-86
2021/08/16 01:31:46;;;;;;;16.63;7.32;;;;;;;13.79;80.93;101511.81;5056212;28;20056;-84
2021/08/16 01:34:12;;;;;;;22.23;8.80;;;;;;;13.82;80.76;101502.50;5048390;28;20072;-84
2021/08/16 01:36:38;;;;;;;15.27;7.32;;;;;;;13.81;80.60;101506.19;5071858;28;20046;-84
2021/08/16 01:39:04;;;;;;;16.05;7.88;;;;;;;13.82;80.22;101499.78;5041006;28;20024;-84
2021/08/16 01:41:29;;;;;;;19.15;7.70;;;;;;;13.78;80.15;101496.59;5061540;28;20038;-85
2021/08/16 01:43:55;;;;;;;14.98;7.43;;;;;;;13.72;80.09;101497.31;5068112;28;20034;-84
2021/08/16 01:46:20;;;;;;;15.88;7.30;;;;;;;13.70;80.27;101493.09;5052687;28;20034;-84
2021/08/16 01:48:46;;;;;;;14.18;6.28;;;;;;;13.71;80.21;101492.09;5079702;28;20020;-85
2021/08/16 01:51:12;;;;;;;16.45;8.05;;;;;;;13.66;80.07;101480.97;5076145;28;20032;-84
2021/08/16 01:53:37;;;;;;;17.83;7.57;;;;;;;13.65;79.82;101482.81;5077625;28;20038;-83
2021/08/16 01:56:03;;;;;;;17.00;6.53;;;;;;;13.78;79.54;101501.16;5058884;28;20024;-85
2021/08/16 01:58:29;;;;;;;17.27;7.47;;;;;;;13.61;79.32;101485.03;5068843;28;20056;-84
2021/08/16 02:00:54;;;;;;;16.33;6.85;;;;;;;13.77;79.43;101516.53;5050461;28;20032;-84
2021/08/16 02:03:20;;;;;;;17.65;7.07;;;;;;;13.61;79.44;101490.44;5063080;28;20032;-84
2021/08/16 02:05:46;;;;;;;18.52;7.32;;;;;;;13.75;79.40;101512.31;5059718;28;20031;-84
2021/08/16 02:08:11;;;;;;;21.83;7.95;;;;;;;13.75;79.50;101504.22;5054730;28;20093;-83
2021/08/16 02:10:38;;;;;;;17.00;7.25;;;;;;;13.72;79.33;101496.47;5061473;28;20534;-84
2021/08/16 02:13:03;;;;;;;17.67;8.45;;;;;;;13.72;79.69;101510.81;5077286;28;20028;-84
2021/08/16 02:15:29;;;;;;;19.60;7.60;;;;;;;13.72;79.58;101507.28;5056923;28;20034;-84
2021/08/16 02:17:55;;;;;;;17.75;8.38;;;;;;;13.76;79.86;101514.00;5065985;28;20144;-84
2021/08/16 02:20:21;;;;;;;16.33;7.43;;;;;;;13.79;79.84;101517.22;5079218;28;20024;-84
2021/08/16 02:22:46;;;;;;;18.42;8.25;;;;;;;13.67;80.06;101498.88;5051856;28;20115;-84
2021/08/16 02:25:12;;;;;;;16.67;7.60;;;;;;;13.68;80.13;101495.13;5071123;28;20021;-85
2021/08/16 02:27:47;;;;;;;23.00;8.50;;;;;;;13.77;80.37;101515.69;5078563;28;20024;-84
2021/08/16 02:30:14;;;;;;;18.75;8.30;;;;;;;13.58;80.75;101496.22;5063072;28;20040;-84
2021/08/16 02:32:40;;;;;;;26.20;8.32;;;;;;;13.77;80.71;101531.91;5077339;28;20421;-84
2021/08/16 02:35:06;;;;;;;18.00;7.47;;;;;;;13.70;81.03;101520.13;5043124;28;20031;-87
2021/08/16 02:37:32;;;;;;;19.35;8.13;;;;;;;13.69;80.70;101527.41;5082934;28;20504;-87
2021/08/16 02:39:57;;;;;;;21.25;8.18;;;;;;;13.65;80.96;101520.66;5078458;28;20036;-87
2021/08/16 02:42:23;;;;;;;24.38;8.75;;;;;;;13.48;81.06;101494.75;5047637;28;20035;-87
2021/08/16 02:44:49;;;;;;;20.27;8.18;;;;;;;13.68;81.02;101524.84;5067140;28;20023;-85
2021/08/16 02:47:16;;;;;;;14.75;8.10;;;;;;;13.70;81.04;101522.81;5057780;28;20031;-86
2021/08/16 02:49:42;;;;;;;23.35;9.68;;;;;;;13.68;81.05;101516.75;5081952;28;20024;-86
2021/08/16 02:52:08;;;;;;;20.50;8.25;;;;;;;13.64;81.22;101511.72;5047937;28;20036;-86
2021/08/16 02:54:33;;;;;;;25.42;8.52;;;;;;;13.63;81.29;101512.75;5067637;28;20028;-86
2021/08/16 02:56:59;;;;;;;15.98;8.93;;;;;;;13.59;81.73;101516.81;5080484;28;20031;-86
2021/08/16 02:59:25;;;;;;;22.88;8.93;;;;;;;13.47;81.70;101501.16;5081437;28;20040;-86
2021/08/16 03:01:50;;;;;;;19.42;7.95;;;;;;;13.41;81.62;101517.06;5063798;28;20028;-87
2021/08/16 03:04:16;;;;;;;22.40;8.15;;;;;;;13.56;81.66;101541.47;5067674;28;20051;-86
2021/08/16 03:06:41;;;;;;;21.60;8.57;;;;;;;13.57;81.86;101543.16;5051139;28;20036;-86
2021/08/16 03:09:07;;;;;;;18.63;8.73;;;;;;;13.60;81.93;101537.41;5079887;28;20024;-86
2021/08/16 03:11:33;;;;;;;20.00;9.90;;;;;;;13.48;81.45;101533.41;5053280;28;20034;-86
2021/08/16 03:13:58;;;;;;;17.85;8.45;;;;;;;13.63;81.96;101564.09;5068552;28;20035;-87
2021/08/16 03:16:24;;;;;;;26.40;8.48;;;;;;;13.51;81.73;101548.44;5077702;28;22449;-86
2021/08/16 03:18:49;;;;;;;20.40;8.30;;;;;;;13.64;81.73;101576.56;5068420;28;20032;-86
2021/08/16 03:21:15;;;;;;;20.77;9.10;;;;;;;13.59;81.87;101568.16;5071904;28;20035;-86
2021/08/16 03:23:41;;;;;;;21.35;8.95;;;;;;;13.64;81.91;101575.72;5079759;28;20024;-86
2021/08/16 03:26:07;;;;;;;17.40;7.90;;;;;;;13.69;81.76;101576.03;5046580;28;20020;-86
2021/08/16 03:28:33;;;;;;;17.98;7.75;;;;;;;13.59;81.66;101560.03;5058648;28;20111;-86
2021/08/16 03:30:58;;;;;;;20.48;8.57;;;;;;;13.31;81.24;101505.66;5064129;28;20054;-86
2021/08/16 03:33:24;;;;;;;19.25;8.82;;;;;;;13.59;81.47;101551.94;5059614;28;20031;-87
2021/08/16 03:35:50;;;;;;;16.38;7.70;;;;;;;13.49;81.43;101535.09;5078712;28;20020;-85
2021/08/16 03:38:15;;;;;;;18.58;9.20;;;;;;;13.56;81.23;101546.88;5064533;28;20024;-86
2021/08/16 03:40:42;;;;;;;21.75;8.63;;;;;;;13.59;80.89;101549.22;5052820;28;20025;-86
2021/08/16 03:43:10;;;;;;;18.20;8.63;;;;;;;13.56;80.91;101552.28;5065073;28;20032;-86
2021/08/16 03:45:35;;;;;;;18.35;8.38;;;;;;;13.60;80.71;101548.22;5053944;28;20070;-85
2021/08/16 03:48:01;;;;;;;18.50;7.93;;;;;;;13.64;80.66;101559.50;5075799;28;20487;-86
2021/08/16 03:50:26;;;;;;;15.88;7.10;;;;;;;13.58;79.69;101561.06;5063084;28;20016;-86
2021/08/16 03:52:52;;;;;;;16.23;7.90;;;;;;;13.59;79.78;101560.03;5083786;28;20027;-86
2021/08/16 03:55:18;;;;;;;20.05;7.38;;;;;;;13.62;79.69;101565.09;5046551;28;20399;-86
2021/08/16 03:57:43;;;;;;;24.65;9.02;;;;;;;13.62;79.65;101569.66;5080010;28;20033;-86
2021/08/16 04:00:10;;;;;;;16.73;7.75;;;;;;;13.56;79.53;101563.09;5050063;28;20039;-86
2021/08/16 04:02:40;;;;;;;18.25;7.85;;;;;;;13.58;79.36;101576.44;5073708;28;20077;-86
2021/08/16 04:05:06;;;;;;;13.80;7.35;;;;;;;13.60;79.68;101579.78;5061697;28;20051;-85
2021/08/16 04:07:31;;;;;;;22.00;8.07;;;;;;;13.57;78.96;101570.16;5069684;28;20024;-86
2021/08/16 04:09:57;;;;;;;15.35;7.38;;;;;;;13.54;79.08;101554.31;5079224;28;20432;-86
2021/08/16 04:12:23;;;;;;;21.10;7.75;;;;;;;13.58;78.69;101550.25;5077313;28;20031;-86
2021/08/16 04:14:49;;;;;;;20.58;7.20;;;;;;;13.57;78.71;101553.13;5059016;28;20120;-86
2021/08/16 04:17:15;;;;;;;20.23;8.00;;;;;;;13.56;78.72;101538.78;5068120;28;20135;-86
2021/08/16 04:19:40;;;;;;;17.10;8.00;;;;;;;13.53;78.82;101541.84;5063396;28;20153;-86
2021/08/16 04:22:06;;;;;;;16.50;7.10;;;;;;;13.55;79.03;101544.38;5051844;28;20089;-86
2021/08/16 04:24:32;;;;;;;19.73;7.65;;;;;;;13.53;79.06;101551.81;5055045;28;20031;-86
2021/08/16 04:26:58;;;;;;;16.85;7.65;;;;;;;13.55;79.25;101561.41;5059403;28;20027;-86
2021/08/16 04:29:23;;;;;;;17.30;7.97;;;;;;;13.41;78.83;101537.81;5063807;28;20031;-86
2021/08/16 04:31:49;;;;;;;19.10;8.15;;;;;;;13.56;78.77;101568.50;5068501;28;20020;-86
2021/08/16 04:34:15;;;;;;;17.10;8.10;;;;;;;13.53;78.98;101566.16;5064095;28;20023;-87
2021/08/16 04:36:40;;;;;;;19.30;7.20;;;;;;;13.48;79.00;101556.91;5043478;28;20028;-86
2021/08/16 04:39:07;;;;;;;21.90;8.27;;;;;;;13.56;79.20;101582.00;5050727;28;20039;-86
2021/08/16 04:41:32;;;;;;;16.60;8.25;;;;;;;13.57;78.99;101580.16;5047326;28;20024;-86
2021/08/16 04:43:58;;;;;;;16.42;7.25;;;;;;;13.53;78.87;101571.56;5051108;28;20449;-86
2021/08/16 04:46:23;;;;;;;15.85;7.55;;;;;;;13.55;79.15;101574.09;5066182;28;20020;-86
2021/08/16 04:48:49;;;;;;;22.77;8.68;;;;;;;13.55;79.17;101569.53;5078565;28;20031;-86
2021/08/16 04:51:15;;;;;;;14.88;7.50;;;;;;;13.50;78.94;101565.66;5059880;28;20034;-86
2021/08/16 04:53:41;;;;;;;16.58;7.15;;;;;;;13.51;79.19;101564.66;5048004;28;20032;-86
2021/08/16 04:56:07;;;;;;;15.60;6.90;;;;;;;13.53;78.98;101568.84;5059922;28;20028;-85
2021/08/16 04:58:33;;;;;;;17.25;6.57;;;;;;;13.47;79.04;101563.28;5067169;28;20103;-86
2021/08/16 05:00:58;;;;;;;14.18;7.10;;;;;;;13.49;78.73;101570.22;5061920;28;20462;-86
2021/08/16 05:03:24;;;;;;;16.63;6.88;;;;;;;13.46;78.92;101562.47;5058858;28;20021;-86
2021/08/16 05:05:53;;;;;;;21.17;7.28;;;;;;;13.35;78.70;101544.78;5073460;28;20020;-86
2021/08/16 05:08:19;;;;;;;18.80;7.63;;;;;;;13.49;78.70;101566.66;5060023;28;20027;-85
2021/08/16 05:10:48;;;;;;;15.75;6.28;;;;;;;13.43;78.90;101565.50;5065362;28;20032;-86
2021/08/16 05:13:15;;;;;;;20.38;6.25;;;;;;;13.43;78.85;101565.50;5065642;28;20546;-86
2021/08/16 05:15:44;;;;;;;15.00;5.88;;;;;;;13.34;78.68;101564.72;5046426;28;20016;-85
2021/08/16 05:18:10;;;;;;;12.90;5.60;;;;;;;13.40;78.22;101573.97;5071045;28;20038;-86
2021/08/16 05:20:37;;;;;;;13.73;6.10;;;;;;;13.39;77.86;101588.50;5066719;28;20108;-86
2021/08/16 05:23:04;;;;;;;18.17;6.32;;;;;;;13.26;77.78;101558.44;5068308;28;20052;-86
2021/08/16 05:25:30;;;;;;;15.45;6.18;;;;;;;13.23;77.52;101570.47;5066985;28;20023;-86
2021/08/16 05:27:56;;;;;;;11.18;5.63;;;;;;;13.28;77.32;101573.50;5072323;28;20106;-85
2021/08/16 05:30:22;;;;;;;13.57;5.00;;;;;;;13.32;77.50;101577.53;5072622;28;20120;-85
2021/08/16 05:32:48;;;;;;;15.30;5.90;;;;;;;13.28;77.20;101568.09;5068653;28;20046;-85
2021/08/16 05:35:14;;;;;;;11.35;5.47;;;;;;;13.44;77.58;101598.78;5087673;28;20238;-85
2021/08/16 05:37:40;;;;;;;13.93;6.20;;;;;;;13.48;77.47;101597.41;5051109;28;20028;-86
2021/08/16 05:40:06;;;;;;;18.85;5.45;;;;;;;13.38;77.53;101582.25;5060792;28;20032;-86
2021/08/16 05:42:32;;;;;;;14.52;5.53;;;;;;;13.40;77.73;101584.78;5074257;28;20020;-86
2021/08/16 05:44:59;;;;;;;13.77;4.82;;;;;;;13.43;77.55;101592.53;5062462;28;20027;-85
2021/08/16 05:47:25;;;;;;;14.75;5.97;;;;;;;13.44;77.28;101590.66;5052581;28;20036;-86
2021/08/16 05:49:51;;;;;;;15.80;5.53;;;;;;;13.47;77.84;101593.00;5085805;28;20032;-85
2021/08/16 05:52:16;;;;;;;13.75;5.05;;;;;;;13.32;77.50;101565.91;5076867;28;20547;-86
2021/08/16 05:54:42;;;;;;;15.10;5.40;;;;;;;13.44;77.53;101594.19;5072953;28;20028;-86
2021/08/16 05:57:09;;;;;;;11.10;4.88;;;;;;;13.49;77.54;101591.81;5047898;28;20033;-86
2021/08/16 05:59:34;;;;;;;11.07;4.90;;;;;;;13.48;77.71;101592.84;5064617;28;20525;-86
2021/08/16 06:02:00;;;;;;;17.08;5.88;;;;;;;13.49;77.72;101590.97;5047211;28;20054;-86
2021/08/16 06:04:26;;;;;;;11.90;4.90;;;;;;;13.50;77.58;101596.22;5063378;28;20024;-86
2021/08/16 06:06:51;;;;;;;14.18;4.80;;;;;;;13.43;77.15;101581.72;5069597;28;20032;-85
2021/08/16 06:09:17;;;;;;;13.13;4.95;;;;;;;13.50;77.44;101595.38;5081713;28;20035;-87
2021/08/16 06:11:43;;;;;;;11.98;4.43;;;;;;;13.53;77.37;101601.28;5066738;28;20020;-86
2021/08/16 06:14:08;;;;;;;13.88;5.18;;;;;;;13.58;77.20;101612.41;5069244;28;20028;-86
2021/08/16 06:16:34;;;;;;;14.82;5.35;;;;;;;13.63;76.84;101612.72;5063392;28;20016;-85
2021/08/16 06:18:59;;;;;;;15.15;5.05;;;;;;;13.61;77.05;101606.66;5058195;28;20033;-86
2021/08/16 06:21:25;;;;;;;13.20;4.18;;;;;;;13.67;76.83;101620.47;5048057;28;20394;-85
2021/08/16 06:23:51;;;;;;;14.38;4.65;;;;;;;13.62;77.17;101605.63;5076659;28;20020;-86
2021/08/16 06:26:18;;;;;;;13.57;4.20;;;;;;;13.65;77.08;101615.22;5068277;28;20090;-86
2021/08/16 06:28:43;;;;;;;12.50;4.35;;;;;;;13.66;76.99;101614.25;5052136;28;20031;-85
2021/08/16 06:31:09;;;;;;;13.15;4.53;;;;;;;13.66;77.13;101610.69;5077058;28;20028;-86
2021/08/16 06:33:37;;;;;;;14.40;4.53;;;;;;;13.71;76.42;101611.84;5051417;28;20027;-86
2021/08/16 06:36:05;;;;;;;11.18;4.68;;;;;;;13.76;76.54;101622.97;5053976;28;20111;-86
2021/08/16 06:38:30;;;;;;;12.23;4.07;;;;;;;13.78;76.56;101628.19;5066405;28;20059;-87
2021/08/16 06:40:57;;;;;;;18.17;4.38;;;;;;;13.80;76.51;101629.69;5065146;28;20047;-85
2021/08/16 06:43:26;;;;;;;10.98;4.60;;;;;;;13.78;76.44;101629.03;5067666;28;20024;-85
2021/08/16 06:45:51;;;;;;;12.35;4.75;;;;;;;13.80;76.28;101642.38;5080971;28;20170;-86
2021/08/16 06:48:17;;;;;;;12.27;4.05;;;;;;;13.85;76.16;101642.69;5075996;28;20111;-87
2021/08/16 06:50:43;;;;;;;9.68;3.90;;;;;;;13.83;76.02;101648.28;5076094;28;20027;-85
2021/08/16 06:53:14;;;;;;;10.88;4.43;;;;;;;13.79;76.08;101648.81;5066791;28;20598;-85
2021/08/16 06:55:40;;;;;;;9.00;4.50;;;;;;;13.80;75.72;101643.22;5066646;28;20035;-86
2021/08/16 06:58:06;;;;;;;8.63;3.67;;;;;;;13.87;75.52;101656.06;5048155;28;20043;-85
2021/08/16 07:00:32;;;;;;;11.00;3.72;;;;;;;13.87;75.54;101661.47;5046179;28;20402;-85
2021/08/16 07:02:58;;;;;;;12.63;3.72;;;;;;;13.85;75.41;101667.88;5054099;28;20088;-86
2021/08/16 07:05:24;;;;;;;7.80;3.22;;;;;;;13.82;75.71;101668.22;5052199;28;20031;-86
2021/08/16 07:07:52;;;;;;;14.40;3.95;;;;;;;13.83;75.53;101671.75;5054778;28;20016;-85
2021/08/16 07:10:19;;;;;;;11.60;4.50;;;;;;;13.90;75.45;101678.16;5083332;28;20028;-85
2021/08/16 07:12:44;;;;;;;12.35;4.03;;;;;;;13.76;75.35;101660.81;5079920;28;20078;-86
2021/08/16 07:15:11;;;;;;;15.20;3.83;;;;;;;13.88;75.41;101680.19;5048725;28;20020;-86
2021/08/16 07:17:36;;;;;;;8.65;3.42;;;;;;;13.87;75.11;101673.13;5067246;28;20024;-87
2021/08/16 07:20:03;;;;;;;10.23;3.35;;;;;;;13.93;75.00;101677.81;5049240;28;20394;-84
2021/08/16 07:22:29;;;;;;;11.20;4.00;;;;;;;13.94;74.97;101684.88;5049165;28;20063;-85
2021/08/16 07:24:54;;;;;;;10.10;3.78;;;;;;;13.96;74.81;101677.44;5065388;28;20479;-85
2021/08/16 07:27:20;;;;;;;11.73;3.60;;;;;;;14.02;74.65;101686.72;5072540;28;20047;-85
2021/08/16 07:29:46;;;;;;;11.98;4.25;;;;;;;13.80;74.65;101645.91;5067410;28;20028;-85
2021/08/16 07:32:12;;;;;;;10.38;3.25;;;;;;;14.02;75.04;101686.72;5050756;28;20039;-85
2021/08/16 07:34:37;;;;;;;7.88;3.25;;;;;;;14.08;75.25;101700.41;5072324;28;20032;-84
2021/08/16 07:37:04;;;;;;;11.63;3.58;;;;;;;14.06;75.27;101696.19;5069199;28;20063;-85
2021/08/16 07:39:30;;;;;;;9.55;3.97;;;;;;;14.11;75.35;101714.59;5070998;28;20025;-85
2021/08/16 07:41:56;;;;;;;8.10;2.67;;;;;;;14.11;75.51;101704.63;5084717;28;20071;-85
2021/08/16 07:44:22;;;;;;;12.15;3.90;;;;;;;13.99;76.12;101687.06;5064283;28;20105;-86
2021/08/16 07:46:47;;;;;;;13.77;3.72;;;;;;;14.13;75.82;101712.53;5069210;28;20035;-85
2021/08/16 07:49:13;;;;;;;12.30;3.42;;;;;;;14.17;76.40;101700.34;5060400;28;20043;-85
2021/08/16 07:51:39;;;;;;;10.13;4.00;;;;;;;14.07;75.96;101689.75;5067181;28;20035;-84
2021/08/16 07:54:04;;;;;;;10.75;3.30;;;;;;;14.22;76.15;101716.91;5075185;28;20024;-84
2021/08/16 07:56:30;;;;;;;10.70;3.70;;;;;;;14.28;76.36;101719.72;5057391;28;20059;-86
2021/08/16 07:59:01;;;;;;;8.43;3.53;;;;;;;14.16;76.11;101696.81;5054758;28;20051;-84
2021/08/16 08:01:29;;;;;;;9.80;3.35;;;;;;;14.25;75.56;101698.44;5055692;28;20142;-84
2021/08/16 08:03:55;;;;;;;9.35;3.97;;;;;;;14.40;75.17;101717.47;5071659;28;20082;-84
2021/08/16 08:06:21;;;;;;;10.88;3.70;;;;;;;14.32;75.10;101704.00;5053420;28;20020;-85
2021/08/16 08:08:47;;;;;;;11.05;3.97;;;;;;;14.42;75.44;101720.88;5074403;28;20048;-84
2021/08/16 08:11:13;;;;;;;11.65;3.72;;;;;;;14.40;75.31;101711.25;5072562;28;20138;-86
2021/08/16 08:13:39;;;;;;;8.68;3.35;;;;;;;14.43;75.13;101708.16;5073779;28;20699;-86
2021/08/16 08:16:05;;;;;;;8.25;3.30;;;;;;;14.41;75.27;101711.03;5062330;28;20516;-86
2021/08/16 08:18:31;;;;;;;11.38;4.03;;;;;;;14.44;75.55;101710.69;5078001;28;20495;-86
2021/08/16 08:20:56;;;;;;;12.68;3.83;;;;;;;14.44;75.26;101713.38;5060849;28;20020;-86
2021/08/16 08:23:22;;;;;;;9.90;3.42;;;;;;;14.49;75.09;101727.22;5067546;28;20084;-86
2021/08/16 08:25:48;;;;;;;8.75;2.72;;;;;;;14.52;75.43;101731.44;5063069;28;20395;-86
2021/08/16 08:28:15;;;;;;;12.75;4.03;;;;;;;14.48;75.05;101736.38;5052405;28;20059;-85
2021/08/16 08:30:42;;;;;;;9.48;2.95;;;;;;;14.49;74.96;101745.34;5052858;28;20020;-85
2021/08/16 08:33:09;;;;;;;13.32;3.00;;;;;;;14.44;74.84;101743.16;5061213;28;20486;-86
2021/08/16 08:35:34;;;;;;;12.73;3.33;;;;;;;14.38;74.86;101735.75;5072424;28;20028;-85
2021/08/16 08:38:07;;;;;;;11.48;3.05;;;;;;;14.39;74.96;101732.00;5064124;28;20071;-87
2021/08/16 08:40:32;;;;;;;7.75;2.90;;;;;;;14.48;74.85;101746.38;5080913;28;20386;-86
2021/08/16 08:42:58;;;;;;;9.30;3.00;;;;;;;14.50;74.61;101749.72;5080676;28;20030;-87
2021/08/16 08:45:26;;;;;;;12.38;3.13;;;;;;;14.61;74.31;101757.50;5083452;28;20020;-86
2021/08/16 08:47:52;;;;;;;8.77;3.10;;;;;;;14.71;74.62;101762.66;5097672;28;20084;-86
2021/08/16 08:50:18;;;;;;;9.30;3.15;;;;;;;14.81;74.33;101751.59;5097520;28;20028;-87
2021/08/16 08:52:44;;;;;;;11.02;3.10;;;;;;;14.78;73.93;101751.97;5065210;28;20034;-88
2021/08/16 08:55:11;;;;;;;13.30;3.55;;;;;;;14.73;74.36;101750.63;5082208;28;20059;-86
2021/08/16 08:57:38;;;;;;;9.00;3.17;;;;;;;14.72;74.77;101753.53;5064558;28;20036;-88
2021/08/16 09:00:08;;;;;;;11.73;3.60;;;;;;;14.76;74.98;101765.66;5081537;28;20035;-87
2021/08/16 09:02:35;;;;;;;10.10;3.30;;;;;;;14.72;75.27;101750.81;5084150;28;20027;-86
2021/08/16 09:05:02;;;;;;;10.40;4.53;;;;;;;14.73;75.65;101760.63;5101205;28;20019;-86
2021/08/16 09:07:35;;;;;;;10.45;3.78;;;;;;;14.68;76.49;101757.59;5081379;28;20024;-86
2021/08/16 09:10:04;;;;;;;13.38;3.67;;;;;;;14.72;76.54;101772.47;5064523;28;20024;-86
2021/08/16 09:12:32;;;;;;;8.82;3.63;;;;;;;14.50;76.41;101738.88;5066589;28;20028;-87
2021/08/16 09:14:58;;;;;;;8.52;2.85;;;;;;;14.70;76.52;101767.22;5099461;28;20016;-86
2021/08/16 09:17:32;;;;;;;10.63;2.85;;;;;;;14.77;76.88;101778.19;5080237;28;20547;-87
2021/08/16 09:19:58;;;;;;;13.30;3.90;;;;;;;14.72;77.10;101775.19;5098206;28;20016;-87
2021/08/16 09:22:28;;;;;;;10.73;2.80;;;;;;;14.73;76.85;101787.69;5082169;28;20111;-87
2021/08/16 09:25:03;;;;;;;7.80;2.83;;;;;;;14.68;76.35;101780.09;5083814;28;20107;-86
2021/08/16 09:27:29;;;;;;;7.68;2.85;;;;;;;14.83;75.95;101787.47;5063689;28;20025;-85
2021/08/16 09:29:54;;;;;;;8.38;2.85;;;;;;;15.01;75.49;101784.47;5061270;28;20439;-86
2021/08/16 09:32:30;;;;;;;8.65;2.88;;;;;;;15.12;74.45;101784.91;5077923;28;20032;-86
2021/08/16 09:35:06;;;;;;;9.32;3.20;;;;;;;15.21;73.99;101779.41;5052102;28;20048;-87
2021/08/16 09:37:32;;;;;;;9.60;2.80;;;;;;;15.36;73.25;101791.97;5069228;28;20058;-86
2021/08/16 09:40:17;;;;;;;8.45;2.40;;;;;;;15.54;72.52;101801.69;5063679;28;20020;-87
2021/08/16 09:43:01;;;;;;;5.88;3.35;;;;;;;15.69;71.82;101799.00;5081515;28;20019;-87
2021/08/16 09:45:29;;;;;;;8.05;2.50;;;;;;;15.77;71.29;101782.66;5097712;28;20046;-87
2021/08/16 09:47:58;;;;;;;6.18;2.45;;;;;;;16.00;70.31;101804.28;5097082;28;20028;-86
2021/08/16 09:50:40;;;;;;;5.43;2.38;;;;;;;16.19;69.24;101805.59;5063693;28;20027;-86
2021/08/16 09:53:15;;;;;;;8.85;2.22;;;;;;;16.36;68.84;101800.84;5061298;28;20376;-86
2021/08/16 09:55:44;;;;;;;4.32;2.55;;;;;;;16.39;68.27;101800.47;5077411;28;20035;-86
2021/08/16 09:58:13;;;;;;;7.07;1.90;;;;;;;16.34;68.17;101811.03;5092206;28;20033;-85
2021/08/16 10:00:40;;;;;;;5.70;2.10;;;;;;;16.22;68.83;101816.94;5077525;28;20105;-85
2021/08/16 10:03:07;;;;;;;6.45;2.47;;;;;;;16.17;69.21;101807.69;5056862;28;20026;-84
2021/08/16 10:05:38;;;;;;;9.23;2.53;;;;;;;16.15;68.75;101815.16;5053842;28;20039;-86
2021/08/16 10:08:09;;;;;;;5.72;2.30;;;;;;;16.13;68.74;101804.47;5064752;28;20078;-85
2021/08/16 10:10:36;;;;;;;5.75;1.95;;;;;;;16.29;68.21;101802.63;5090714;28;20390;-85
2021/08/16 10:13:02;;;;;;;4.75;1.67;;;;;;;16.36;67.54;101809.81;5057281;28;20103;-86
2021/08/16 10:15:29;;;;;;;7.60;2.20;;;;;;;16.30;67.83;101801.56;5075940;28;20012;-85
2021/08/16 10:17:55;;;;;;;11.57;2.10;;;;;;;16.13;68.07;101788.19;5073692;28;20490;-85
2021/08/16 10:20:20;;;;;;;6.20;1.88;;;;;;;15.92;68.96;101775.38;5087920;28;20028;-85
2021/08/16 10:22:46;;;;;;;8.50;1.92;;;;;;;15.96;68.85;101803.84;5073435;28;20055;-85
2021/08/16 10:25:14;;;;;;;6.65;1.80;;;;;;;15.91;69.63;101810.84;5053813;28;20025;-84
2021/08/16 10:27:41;;;;;;;4.80;2.00;;;;;;;15.83;69.71;101807.19;5056556;28;20107;-84
2021/08/16 10:30:09;;;;;;;8.82;2.45;;;;;;;15.78;70.23;101825.03;5066805;28;20038;-85
2021/08/16 10:32:35;;;;;;;6.00;1.92;;;;;;;15.58;70.56;101795.69;5070728;28;20068;-84
2021/08/16 10:35:14;;;;;;;4.55;2.15;;;;;;;15.86;70.71;101816.81;5058090;28;20107;-85
2021/08/16 10:37:42;;;;;;;5.95;2.03;;;;;;;16.14;70.35;101819.75;5073613;28;20057;-85
2021/08/16 10:40:18;;;;;;;7.15;2.00;;;;;;;16.46;68.88;101814.97;5058013;28;20028;-86
2021/08/16 10:42:44;;;;;;;5.32;1.88;;;;;;;16.58;68.02;101812.59;5072106;28;20028;-85
2021/08/16 10:45:10;;;;;;;5.93;1.92;;;;;;;16.64;67.83;101787.38;5090490;28;20024;-85
2021/08/16 10:47:37;;;;;;;5.07;2.13;;;;;;;16.88;66.88;101827.84;5090029;28;20024;-85
2021/08/16 10:50:07;;;;;;;9.32;4.25;;;;;;;16.75;66.90;101818.63;5089661;28;20080;-85
2021/08/16 10:52:33;;;;;;;8.18;1.95;;;;;;;16.70;67.35;101820.06;5089975;28;20170;-85
2021/08/16 10:55:14;;;;;;;6.75;1.88;;;;;;;16.54;67.37;101839.28;5053310;28;20540;-85
2021/08/16 10:57:41;;;;;;;5.68;2.03;;;;;;;16.25;68.30;101823.88;5076350;28;20048;-85
2021/08/16 11:00:08;;;;;;;8.75;2.38;;;;;;;16.23;69.46;101825.91;5073204;28;20031;-85
2021/08/16 11:02:36;;;;;;;5.85;2.42;;;;;;;16.18;70.05;101820.22;5090313;28;20027;-85
2021/08/16 11:05:02;;;;;;;4.78;1.92;;;;;;;16.27;70.74;101827.22;5072402;28;20023;-85
2021/08/16 11:07:28;;;;;;;4.40;2.10;;;;;;;16.39;70.65;101827.59;5095999;28;20601;-85
2021/08/16 11:09:56;;;;;;;6.75;2.83;;;;;;;16.57;70.61;101836.19;5088981;28;20127;-86
2021/08/16 11:12:32;;;;;;;7.63;2.22;;;;;;;16.92;68.73;101815.53;5070016;28;20025;-85
2021/08/16 11:14:58;;;;;;;4.60;2.03;;;;;;;17.25;67.71;101816.91;5084418;28;20017;-85
2021/08/16 11:17:30;;;;;;;2.38;1.35;;;;;;;17.39;66.54;101834.22;5078162;28;20055;-85